createdAt,value
2023-03-14T00:01:56.487Z,10.60
2023-03-14T00:08:14.917Z,10.50
2023-03-14T00:14:10.267Z,10.40
2023-03-14T00:20:09.298Z,10.40
2023-03-14T00:26:27.964Z,10.50
2023-03-14T00:32:46.433Z,10.50
2023-03-14T00:38:41.011Z,10.40
2023-03-14T00:44:35.570Z,10.50
2023-03-14T00:50:54.161Z,10.50
2023-03-14T00:57:12.650Z,10.60
2023-03-14T01:03:07.168Z,10.60
2023-03-14T01:09:01.817Z,10.60
2023-03-14T01:15:34.092Z,10.60
2023-03-14T01:21:52.476Z,10.70
2023-03-14T01:27:46.852Z,10.70
2023-03-14T01:33:41.622Z,10.70
2023-03-14T01:40:00.167Z,10.70
2023-03-14T01:46:20.037Z,10.80
2023-03-14T01:52:14.393Z,10.70
2023-03-14T01:58:08.874Z,10.60
2023-03-14T02:04:29.716Z,10.60
2023-03-14T02:10:48.899Z,10.60
2023-03-14T02:16:43.289Z,10.60
2023-03-14T02:22:39.064Z,10.60
2023-03-14T02:28:57.534Z,10.70
2023-03-14T02:35:17.025Z,10.70
2023-03-14T02:41:11.395Z,10.60
2023-03-14T02:47:05.886Z,10.60
2023-03-14T02:53:27.647Z,10.60
2023-03-14T02:59:46.013Z,10.60
2023-03-14T03:05:40.431Z,10.70
2023-03-14T03:11:35.071Z,10.60
2023-03-14T03:18:05.604Z,10.70
2023-03-14T03:24:23.987Z,10.70
2023-03-14T03:30:18.350Z,10.60
2023-03-14T03:36:12.853Z,10.60
2023-03-14T03:42:31.377Z,10.60
2023-03-14T03:48:49.738Z,10.70
2023-03-14T03:54:44.092Z,10.70
2023-03-14T04:00:38.584Z,10.70
2023-03-14T04:06:57.072Z,10.60
2023-03-14T04:13:15.471Z,10.60
2023-03-14T04:19:09.829Z,10.60
2023-03-14T04:25:04.855Z,10.60
2023-03-14T04:31:23.664Z,10.60
2023-03-14T04:37:44.281Z,10.50
2023-03-14T04:43:38.647Z,10.50
2023-03-14T04:49:33.176Z,10.40
2023-03-14T04:55:56.005Z,10.30
2023-03-14T05:02:14.365Z,10.30
2023-03-14T05:08:08.794Z,9.30
2023-03-14T05:14:03.266Z,8.50
2023-03-14T05:20:33.769Z,8.30
2023-03-14T05:26:52.189Z,8.10
2023-03-14T05:32:46.593Z,7.80
2023-03-14T05:38:41.091Z,7.70
2023-03-14T05:44:59.598Z,7.80
2023-03-14T05:51:18.005Z,7.60
2023-03-14T05:57:12.375Z,7.50
2023-03-14T06:03:07.799Z,7.60
2023-03-14T06:09:26.520Z,7.60
2023-03-14T06:15:44.974Z,7.70
2023-03-14T06:21:39.342Z,7.70
2023-03-14T06:27:34.445Z,7.80
2023-03-14T06:33:52.908Z,7.90
2023-03-14T06:40:11.990Z,7.90
2023-03-14T06:46:06.543Z,7.70
2023-03-14T06:52:01.024Z,7.70
2023-03-14T06:58:20.188Z,7.60
2023-03-14T07:04:38.700Z,7.60
2023-03-14T07:10:33.095Z,7.50
2023-03-14T07:16:29.750Z,7.40
2023-03-14T07:23:04.255Z,7.30
2023-03-14T07:29:22.719Z,7.30
2023-03-14T07:35:18.278Z,7.40
2023-03-14T07:41:12.866Z,7.50
2023-03-14T07:47:31.382Z,7.70
2023-03-14T07:53:49.856Z,7.70
2023-03-14T07:59:44.749Z,7.50
2023-03-14T08:05:39.528Z,7.50
2023-03-14T08:11:58.873Z,7.60
2023-03-14T08:18:19.525Z,7.60
2023-03-14T08:24:13.973Z,7.70
2023-03-14T08:30:11.898Z,7.80
2023-03-14T08:36:32.407Z,7.60
2023-03-14T08:42:50.868Z,7.70
2023-03-14T08:48:46.271Z,7.60
2023-03-14T08:54:40.791Z,7.30
2023-03-14T09:01:01.646Z,7.10
2023-03-14T09:07:20.211Z,7.00
2023-03-14T09:13:14.619Z,6.80
2023-03-14T09:19:10.172Z,6.50
2023-03-14T09:25:40.715Z,6.40
2023-03-14T09:31:59.380Z,6.80
2023-03-14T09:37:53.768Z,6.90
2023-03-14T09:43:48.413Z,6.80
2023-03-14T09:50:10.795Z,7.10
2023-03-14T09:56:29.600Z,7.50
2023-03-14T10:02:27.198Z,7.80
2023-03-14T10:08:22.514Z,8.00
2023-03-14T10:14:51.663Z,8.20
2023-03-14T10:21:11.393Z,8.40
2023-03-14T10:27:06.412Z,8.40
2023-03-14T10:33:09.264Z,8.30
2023-03-14T10:39:29.217Z,8.20
2023-03-14T10:45:52.663Z,7.70
2023-03-14T10:51:47.083Z,7.40
2023-03-14T10:57:42.908Z,7.50
2023-03-14T11:04:33.251Z,7.50
2023-03-14T11:11:08.763Z,7.40
2023-03-14T11:17:04.143Z,7.40
2023-03-14T11:23:25.092Z,7.30
2023-03-14T11:30:33.274Z,7.40
2023-03-14T11:36:58.948Z,7.60
2023-03-14T11:42:58.269Z,7.60
2023-03-14T11:49:01.612Z,7.80
2023-03-14T11:55:32.204Z,7.80
2023-03-14T12:01:53.366Z,7.90
2023-03-14T12:08:03.063Z,7.30
2023-03-14T12:13:58.595Z,6.80
2023-03-14T12:20:22.340Z,6.60
2023-03-14T12:26:53.963Z,6.80
2023-03-14T12:33:07.351Z,7.10
2023-03-14T12:39:41.027Z,7.30
2023-03-14T12:46:23.635Z,7.30
2023-03-14T12:52:50.884Z,7.70
2023-03-14T12:58:46.301Z,7.20
2023-03-14T13:04:43.888Z,6.70
2023-03-14T13:11:03.841Z,6.60
2023-03-14T13:17:36.228Z,6.70
2023-03-14T13:23:35.295Z,7.10
2023-03-14T13:29:34.068Z,7.20
2023-03-14T13:36:05.831Z,7.20
2023-03-14T13:42:27.970Z,7.30
2023-03-14T13:48:22.378Z,7.40
2023-03-14T13:54:18.514Z,7.40
2023-03-14T14:00:37.110Z,7.60
2023-03-14T14:06:56.575Z,7.50
2023-03-14T14:12:57.049Z,7.60
2023-03-14T14:18:53.908Z,7.50
2023-03-14T14:25:15.640Z,7.50
2023-03-14T14:31:34.169Z,7.50
2023-03-14T14:37:29.313Z,7.50
2023-03-14T14:43:25.053Z,7.40
2023-03-14T14:49:43.589Z,7.50
2023-03-14T14:56:05.024Z,7.70
2023-03-14T15:02:00.323Z,7.90
2023-03-14T15:07:57.304Z,7.90
2023-03-14T15:14:17.589Z,8.30
2023-03-14T15:20:35.993Z,8.60
2023-03-14T15:26:30.497Z,8.50
2023-03-14T15:32:25.027Z,8.30
2023-03-14T15:38:55.966Z,8.50
2023-03-14T15:45:14.483Z,8.20
2023-03-14T15:51:08.877Z,8.70
2023-03-14T15:57:03.590Z,8.30
2023-03-14T16:03:22.263Z,8.00
2023-03-14T16:09:40.667Z,7.90
2023-03-14T16:15:35.042Z,7.80
2023-03-14T16:23:20.665Z,7.90
2023-03-14T16:29:39.234Z,8.00
2023-03-14T16:35:58.569Z,7.90
2023-03-14T16:41:57.111Z,8.10
2023-03-14T16:47:53.486Z,7.90
2023-03-14T16:54:11.957Z,7.90
2023-03-14T17:00:30.459Z,7.80
2023-03-14T17:06:25.697Z,7.70
2023-03-14T17:12:20.162Z,7.60
2023-03-14T17:18:38.861Z,7.60
2023-03-14T17:24:57.367Z,7.50
2023-03-14T17:30:51.893Z,7.40
2023-03-14T17:36:48.943Z,7.30
2023-03-14T17:43:19.500Z,7.30
2023-03-14T17:49:38.791Z,7.30
2023-03-14T17:55:34.281Z,7.10
2023-03-14T18:01:28.887Z,7.20
2023-03-14T18:07:48.468Z,7.20
2023-03-14T18:14:11.611Z,7.20
2023-03-14T18:20:09.553Z,7.10
2023-03-14T18:26:04.258Z,7.10
2023-03-14T18:32:22.842Z,7.10
2023-03-14T18:38:47.895Z,7.10
2023-03-14T18:44:42.370Z,7.20
2023-03-14T18:50:36.882Z,6.80
2023-03-14T18:56:55.817Z,6.50
2023-03-14T19:03:14.345Z,6.40
2023-03-14T19:09:10.010Z,6.30
2023-03-14T19:15:04.829Z,6.30
2023-03-14T19:21:32.897Z,6.40
2023-03-14T19:27:51.236Z,6.40
2023-03-14T19:33:45.652Z,6.40
2023-03-14T19:39:40.436Z,6.40
2023-03-14T19:46:11.262Z,6.50
2023-03-14T19:52:30.713Z,6.50
2023-03-14T19:58:25.162Z,6.50
2023-03-14T20:04:19.686Z,6.40
2023-03-14T20:10:38.160Z,6.50
2023-03-14T20:16:56.626Z,6.50
2023-03-14T20:22:51.052Z,6.60
2023-03-14T20:28:47.225Z,6.50
2023-03-14T20:35:08.034Z,6.70
2023-03-14T20:41:26.531Z,6.60
2023-03-14T20:47:20.983Z,6.40
2023-03-14T20:53:16.380Z,6.30
2023-03-14T20:59:34.878Z,6.20
2023-03-14T21:05:53.560Z,6.30
2023-03-14T21:11:48.976Z,6.20
2023-03-14T21:17:43.599Z,6.00
2023-03-14T21:24:02.563Z,5.90
2023-03-14T21:30:21.022Z,5.90
2023-03-14T21:36:15.593Z,5.80
2023-03-14T21:42:10.100Z,5.70
2023-03-14T21:48:40.597Z,5.80
2023-03-14T21:54:59.083Z,5.90
2023-03-14T22:00:54.618Z,5.90
2023-03-14T22:06:49.094Z,5.70
2023-03-14T22:13:07.794Z,5.60
2023-03-14T22:19:27.333Z,5.60
2023-03-14T22:25:21.680Z,5.60
2023-03-14T22:31:16.328Z,5.40
2023-03-14T22:37:34.926Z,5.50
2023-03-14T22:43:53.347Z,5.50
2023-03-14T22:49:47.729Z,5.50
2023-03-14T22:55:42.183Z,5.50
2023-03-14T23:02:00.855Z,5.50
2023-03-14T23:08:19.289Z,5.40
2023-03-14T23:14:13.880Z,5.50
2023-03-14T23:20:09.367Z,5.60
2023-03-14T23:26:27.999Z,5.70
2023-03-14T23:32:46.565Z,5.90
2023-03-14T23:38:41.585Z,6.00
2023-03-14T23:44:36.208Z,5.90
2023-03-14T23:51:08.619Z,6.00
2023-03-14T23:57:27.054Z,6.20
